Time,TemperatureF,DewpointF,PressureIn,WindDirection,WindDirectionDegrees,WindSpeedMPH,WindSpeedGustMPH,Humidity,HourlyPrecipIn,Conditions,Clouds,dailyrainin,SoftwareType,DateUTC
2013-05-29 00:01:00,64.2,62.7,29.91,West,270,2.9,4.7,95,0.02,RA,,0.00,WeatherDisplay:10.37,2013-05-29 04:01:00,
2013-05-29 00:02:00,64.2,62.7,29.91,West,270,3.7,4.6,95,0.03,-RA,,0.01,WeatherDisplay:10.37,2013-05-29 04:02:00,
2013-05-29 00:07:00,64.4,62.9,29.91,NNE,22,4.0,5.8,95,0.03,-RA,,0.01,WeatherDisplay:10.37,2013-05-29 04:07:00,
2013-05-29 00:12:00,64.4,62.9,29.91,SW,225,2.6,5.8,95,0.03,-RA,,0.01,WeatherDisplay:10.37,2013-05-29 04:12:00,
2013-05-29 00:17:00,64.6,63.1,29.91,ENE,68,3.9,8.1,95,0.03,-RA,,0.01,WeatherDisplay:10.37,2013-05-29 04:17:00,
2013-05-29 00:22:00,64.6,63.1,29.91,WNW,292,2.4,3.5,95,0.03,-RA,,0.01,WeatherDisplay:10.37,2013-05-29 04:22:00,
2013-05-29 00:27:00,64.6,63.1,29.91,West,270,4.1,5.8,95,0.03,-RA,,0.01,WeatherDisplay:10.37,2013-05-29 04:27:00,
2013-05-29 00:32:00,64.8,63.3,29.91,West,270,5.3,5.8,95,0.03,-RA,,0.01,WeatherDisplay:10.37,2013-05-29 04:32:00,
2013-05-29 00:37:00,64.8,63.3,29.91,WSW,248,7.1,8.3,95,0.23,-RA,,0.21,WeatherDisplay:10.37,2013-05-29 04:37:00,
2013-05-29 00:42:00,64.6,63.1,29.92,West,270,5.0,5.8,95,0.32,RA,,0.30,WeatherDisplay:10.37,2013-05-29 04:42:00,
2013-05-29 00:47:00,64.4,62.9,29.92,West,270,3.5,5.8,95,0.32,RA,,0.31,WeatherDisplay:10.37,2013-05-29 04:47:00,
2013-05-29 00:52:00,64.4,62.9,29.92,WSW,248,4.8,5.8,95,0.32,RA,,0.32,WeatherDisplay:10.37,2013-05-29 04:52:00,
2013-05-29 00:57:00,64.2,62.7,29.92,SSE,158,4.2,5.8,95,0.32,RA,,0.32,WeatherDisplay:10.37,2013-05-29 04:57:00,
2013-05-29 01:02:00,64.2,62.7,29.92,North,360,4.0,8.1,95,0.32,OVC,,0.32,WeatherDisplay:10.37,2013-05-29 05:02:00,
2013-05-29 01:07:00,64.2,62.7,29.92,SW,225,4.7,8.3,95,0.31,OVC,,0.32,WeatherDisplay:10.37,2013-05-29 05:07:00,
2013-05-29 01:12:00,64.2,62.7,29.92,ESE,112,3.6,4.6,95,0.31,OVC,,0.32,WeatherDisplay:10.37,2013-05-29 05:12:00,
2013-05-29 01:17:00,64.2,62.7,29.91,SSW,202,2.3,4.6,95,0.31,OVC,,0.32,WeatherDisplay:10.37,2013-05-29 05:17:00,
2013-05-29 01:22:00,64.2,62.7,29.91,SSE,158,2.9,5.8,95,0.31,OVC,,0.32,WeatherDisplay:10.37,2013-05-29 05:22:00,
2013-05-29 01:27:00,64.2,62.7,29.91,SSE,158,3.3,4.6,95,0.31,OVC,,0.32,WeatherDisplay:10.37,2013-05-29 05:27:00,
2013-05-29 01:32:00,64.2,62.7,29.90,ESE,112,4.0,4.6,95,0.31,OVC,,0.32,WeatherDisplay:10.37,2013-05-29 05:32:00,
2013-05-29 01:37:00,64.2,62.7,29.90,SSE,158,3.1,5.8,95,0.21,OVC,,0.32,WeatherDisplay:10.37,2013-05-29 05:37:00,
2013-05-29 01:42:00,64.2,62.7,29.90,NE,45,2.1,2.3,95,0.02,OVC,,0.32,WeatherDisplay:10.37,2013-05-29 05:42:00,
2013-05-29 01:47:00,64.2,62.7,29.90,WSW,248,2.7,4.6,95,0.01,OVC,,0.32,WeatherDisplay:10.37,2013-05-29 05:47:00,
2013-05-29 01:52:00,64.2,62.7,29.90,SSE,158,5.4,8.1,95,0.00,OVC,,0.32,WeatherDisplay:10.37,2013-05-29 05:52:00,
2013-05-29 01:57:00,64.4,62.9,29.90,South,180,3.2,5.8,95,0.00,OVC,,0.32,WeatherDisplay:10.37,2013-05-29 05:57:00,
2013-05-29 02:02:00,64.4,62.9,29.90,West,270,4.5,5.8,95,0.00,OVC,,0.32,WeatherDisplay:10.37,2013-05-29 06:02:00,
2013-05-29 02:07:00,64.6,63.1,29.90,SW,225,4.3,4.6,95,0.00,OVC,,0.32,WeatherDisplay:10.37,2013-05-29 06:07:00,
2013-05-29 02:12:00,64.8,63.3,29.90,ESE,112,3.5,4.6,95,0.00,-RA,,0.32,WeatherDisplay:10.37,2013-05-29 06:12:00,
2013-05-29 02:17:00,64.8,63.3,29.89,SE,135,4.1,4.7,95,0.00,-RA,,0.32,WeatherDisplay:10.37,2013-05-29 06:17:00,
2013-05-29 02:22:00,64.8,63.3,29.89,SSW,202,4.6,5.8,95,0.00,-RA,,0.32,WeatherDisplay:10.37,2013-05-29 06:22:00,
2013-05-29 02:27:00,64.9,63.4,29.89,SSE,158,4.5,5.8,95,0.00,-RA,,0.32,WeatherDisplay:10.37,2013-05-29 06:27:00,
2013-05-29 02:32:00,64.9,63.4,29.89,ESE,112,4.0,4.7,95,0.00,-RA,,0.32,WeatherDisplay:10.37,2013-05-29 06:32:00,
2013-05-29 02:37:00,65.3,63.8,29.89,West,270,2.7,4.7,95,0.00,-RA,,0.32,WeatherDisplay:10.37,2013-05-29 06:37:00,
2013-05-29 02:42:00,65.5,64.0,29.89,NNW,338,2.7,4.6,95,0.00,-RA,,0.32,WeatherDisplay:10.37,2013-05-29 06:42:00,
2013-05-29 02:47:00,65.7,64.2,29.89,North,360,3.9,5.8,95,0.00,-RA,,0.32,WeatherDisplay:10.37,2013-05-29 06:47:00,
2013-05-29 02:52:00,65.8,64.3,29.89,NNW,338,2.7,4.6,95,0.00,-RA,,0.32,WeatherDisplay:10.37,2013-05-29 06:52:00,
2013-05-29 02:57:00,66.0,64.5,29.88,NNW,338,2.6,3.7,95,0.00,-RA,,0.32,WeatherDisplay:10.37,2013-05-29 06:57:00,
2013-05-29 03:02:00,66.6,65.1,29.88,NE,45,3.7,5.8,95,0.00,-RA,,0.32,WeatherDisplay:10.37,2013-05-29 07:02:00,
2013-05-29 03:07:00,66.7,65.2,29.88,SW,225,4.8,5.8,95,0.00,-RA,,0.32,WeatherDisplay:10.37,2013-05-29 07:07:00,
2013-05-29 03:12:00,66.9,65.4,29.88,ESE,112,3.7,8.1,95,0.00,OVC,,0.32,WeatherDisplay:10.37,2013-05-29 07:12:00,
2013-05-29 03:17:00,67.1,65.3,29.88,South,180,5.4,6.9,94,0.00,OVC,,0.32,WeatherDisplay:10.37,2013-05-29 07:17:00,
2013-05-29 03:22:00,67.3,65.5,29.88,West,270,4.8,7.3,94,0.01,RA,,0.33,WeatherDisplay:10.37,2013-05-29 07:22:00,
2013-05-29 03:27:00,66.9,65.4,29.88,SSW,202,3.8,4.6,95,0.02,RA,,0.34,WeatherDisplay:10.37,2013-05-29 07:27:00,
2013-05-29 03:32:00,66.9,65.4,29.88,South,180,5.1,6.9,95,0.02,RA,,0.34,WeatherDisplay:10.37,2013-05-29 07:32:00,
2013-05-29 03:37:00,66.9,65.4,29.88,SSW,202,3.7,5.8,95,0.02,OVC,,0.34,WeatherDisplay:10.37,2013-05-29 07:37:00,
2013-05-29 03:42:00,66.9,65.4,29.88,South,180,4.3,7.3,95,0.02,OVC,,0.34,WeatherDisplay:10.37,2013-05-29 07:42:00,
2013-05-29 03:47:00,66.9,65.4,29.88,West,270,5.2,5.8,95,0.02,OVC,,0.34,WeatherDisplay:10.37,2013-05-29 07:47:00,
2013-05-29 03:52:00,67.1,65.3,29.88,NE,45,3.8,5.8,94,0.02,OVC,,0.34,WeatherDisplay:10.37,2013-05-29 07:52:00,
2013-05-29 03:57:00,67.3,65.5,29.88,SW,225,4.9,6.9,94,0.02,OVC,,0.34,WeatherDisplay:10.37,2013-05-29 07:57:00,
2013-05-29 04:02:00,67.8,65.7,29.88,WNW,292,4.8,5.8,93,0.02,OVC,,0.34,WeatherDisplay:10.37,2013-05-29 08:02:00,
2013-05-29 04:07:00,67.8,65.4,29.88,NNW,338,5.9,6.9,92,0.02,OVC,,0.34,WeatherDisplay:10.37,2013-05-29 08:07:00,
2013-05-29 04:12:00,68.0,65.3,29.88,SSW,202,4.5,6.9,91,0.02,-RA,,0.34,WeatherDisplay:10.37,2013-05-29 08:12:00,
2013-05-29 04:17:00,68.4,65.7,29.88,South,180,6.5,8.3,91,0.02,-RA,,0.34,WeatherDisplay:10.37,2013-05-29 08:17:00,
2013-05-29 04:22:00,68.5,65.4,29.88,South,180,5.3,6.9,90,0.01,-RA,,0.34,WeatherDisplay:10.37,2013-05-29 08:22:00,
2013-05-29 04:27:00,68.7,65.3,29.88,SSW,202,5.2,8.1,89,0.00,-RA,,0.34,WeatherDisplay:10.37,2013-05-29 08:27:00,
2013-05-29 04:32:00,68.7,65.3,29.88,West,270,5.1,5.8,89,0.00,-RA,,0.34,WeatherDisplay:10.37,2013-05-29 08:32:00,
2013-05-29 04:37:00,68.7,65.3,29.88,West,270,5.6,9.9,89,0.00,-RA,,0.34,WeatherDisplay:10.37,2013-05-29 08:37:00,
2013-05-29 04:42:00,68.9,65.5,29.88,SW,225,5.3,5.8,89,0.00,-RA,,0.34,WeatherDisplay:10.37,2013-05-29 08:42:00,
2013-05-29 04:47:00,69.4,65.4,29.88,SSW,202,6.1,8.1,87,0.00,-RA,,0.34,WeatherDisplay:10.37,2013-05-29 08:47:00,
2013-05-29 04:52:00,69.3,65.6,29.88,West,270,5.0,8.1,88,0.01,-RA,,0.35,WeatherDisplay:10.37,2013-05-29 08:52:00,
2013-05-29 04:57:00,68.4,65.7,29.90,West,270,4.4,4.7,91,0.04,-RA,,0.38,WeatherDisplay:10.37,2013-05-29 08:57:00,
2013-05-29 05:02:00,67.8,65.7,29.90,West,270,3.9,4.6,93,0.04,RA,,0.38,WeatherDisplay:10.37,2013-05-29 09:02:00,
2013-05-29 05:07:00,67.3,65.8,29.91,West,270,6.0,6.9,95,0.04,OVC,,0.38,WeatherDisplay:10.37,2013-05-29 09:07:00,
2013-05-29 05:12:00,67.1,65.6,29.91,West,270,3.2,3.5,95,0.04,OVC,,0.38,WeatherDisplay:10.37,2013-05-29 09:12:00,
2013-05-29 05:17:00,66.9,65.4,29.93,WSW,248,5.1,5.8,95,0.11,RA,,0.45,WeatherDisplay:10.37,2013-05-29 09:17:00,
2013-05-29 05:22:00,65.8,64.3,29.93,WSW,248,5.2,8.1,95,0.16,RA,,0.51,WeatherDisplay:10.37,2013-05-29 09:22:00,
2013-05-29 05:27:00,65.5,64.0,29.93,NNW,338,3.9,5.8,95,0.23,RA,,0.58,WeatherDisplay:10.37,2013-05-29 09:27:00,
2013-05-29 05:32:00,64.9,63.4,29.94,SW,225,3.0,5.8,95,0.31,RA,,0.65,WeatherDisplay:10.37,2013-05-29 09:32:00,
2013-05-29 05:37:00,64.9,63.4,29.94,NE,45,0.6,1.7,95,0.32,RA,,0.66,WeatherDisplay:10.37,2013-05-29 09:37:00,
2013-05-29 05:42:00,64.6,63.1,29.93,WNW,292,2.0,2.3,95,0.32,RA,,0.66,WeatherDisplay:10.37,2013-05-29 09:42:00,
2013-05-29 05:47:00,64.6,63.1,29.93,SW,225,1.0,1.1,95,0.32,OVC,,0.66,WeatherDisplay:10.37,2013-05-29 09:47:00,
2013-05-29 05:52:00,64.6,63.1,29.93,WSW,248,0.3,1.1,95,0.31,OVC,,0.66,WeatherDisplay:10.37,2013-05-29 09:52:00,
2013-05-29 05:57:00,64.4,62.9,29.93,SSE,158,1.3,1.7,95,0.28,OVC,,0.66,WeatherDisplay:10.37,2013-05-29 09:57:00,
2013-05-29 06:02:00,64.2,62.7,29.93,ESE,112,2.6,3.5,95,0.28,OVC,,0.66,WeatherDisplay:10.37,2013-05-29 10:02:00,
2013-05-29 06:07:00,64.0,62.5,29.93,SSE,158,4.0,4.6,95,0.28,OVC,,0.66,WeatherDisplay:10.37,2013-05-29 10:07:00,
2013-05-29 06:12:00,63.9,62.4,29.93,SE,135,2.5,3.5,95,0.28,OVC,,0.66,WeatherDisplay:10.37,2013-05-29 10:12:00,
2013-05-29 06:17:00,63.9,62.4,29.92,SSE,158,0.9,2.7,95,0.21,OVC,,0.66,WeatherDisplay:10.37,2013-05-29 10:17:00,
2013-05-29 06:22:00,63.9,62.4,29.92,WNW,292,1.6,2.3,95,0.16,OVC,,0.66,WeatherDisplay:10.37,2013-05-29 10:22:00,
2013-05-29 06:27:00,63.9,62.4,29.92,NNW,338,1.0,1.1,95,0.09,OVC,,0.66,WeatherDisplay:10.37,2013-05-29 10:27:00,
2013-05-29 06:32:00,63.9,62.4,29.93,SW,225,1.9,2.3,95,0.01,OVC,,0.66,WeatherDisplay:10.37,2013-05-29 10:32:00,
2013-05-29 06:37:00,63.9,62.4,29.93,SW,225,2.0,2.3,95,0.00,OVC,,0.66,WeatherDisplay:10.37,2013-05-29 10:37:00,
2013-05-29 06:42:00,63.9,62.4,29.93,SW,225,0.8,1.7,95,0.00,OVC,,0.66,WeatherDisplay:10.37,2013-05-29 10:42:00,
2013-05-29 06:47:00,63.9,62.4,29.93,West,270,1.7,2.3,95,0.00,OVC,,0.66,WeatherDisplay:10.37,2013-05-29 10:47:00,
2013-05-29 06:52:00,63.9,62.4,29.93,West,270,0.4,2.3,95,0.00,OVC,,0.66,WeatherDisplay:10.37,2013-05-29 10:52:00,
2013-05-29 06:57:00,63.9,62.4,29.94,West,270,1.0,2.2,95,0.00,OVC,,0.66,WeatherDisplay:10.37,2013-05-29 10:57:00,
2013-05-29 07:02:00,63.9,62.4,29.94,West,270,1.9,2.3,95,0.00,OVC,,0.66,WeatherDisplay:10.37,2013-05-29 11:02:00,
2013-05-29 07:07:00,63.9,62.4,29.94,ESE,112,0.8,2.3,95,0.00,OVC,,0.66,WeatherDisplay:10.37,2013-05-29 11:07:00,
2013-05-29 07:12:00,64.2,62.7,29.94,East,90,0.7,1.1,95,0.00,BKN,,0.66,WeatherDisplay:10.37,2013-05-29 11:12:00,
2013-05-29 07:17:00,64.4,62.9,29.94,ESE,112,0.8,1.1,95,0.00,BKN,,0.66,WeatherDisplay:10.37,2013-05-29 11:17:00,
2013-05-29 07:22:00,64.8,63.3,29.94,SSE,158,1.6,2.3,95,0.00,BKN,,0.66,WeatherDisplay:10.37,2013-05-29 11:22:00,
2013-05-29 07:27:00,65.3,63.8,29.94,South,180,0.0,0.0,95,0.00,BKN,,0.66,WeatherDisplay:10.37,2013-05-29 11:27:00,
2013-05-29 07:32:00,65.8,64.3,29.94,WSW,248,0.8,2.3,95,0.00,BKN,,0.66,WeatherDisplay:10.37,2013-05-29 11:32:00,
2013-05-29 07:37:00,66.4,64.9,29.94,NNW,338,0.0,0.0,95,0.00,BKN,,0.66,WeatherDisplay:10.37,2013-05-29 11:37:00,
2013-05-29 07:42:00,67.6,66.1,29.94,ESE,112,0.5,1.7,95,0.00,BKN,,0.66,WeatherDisplay:10.37,2013-05-29 11:42:00,
2013-05-29 07:47:00,68.9,67.4,29.94,WSW,248,2.1,3.2,95,0.00,BKN,,0.66,WeatherDisplay:10.37,2013-05-29 11:47:00,
2013-05-29 07:52:00,69.6,67.8,29.94,SW,225,1.6,2.2,94,0.00,BKN,,0.66,WeatherDisplay:10.37,2013-05-29 11:52:00,
2013-05-29 07:57:00,70.0,67.6,29.95,West,270,2.3,3.5,92,0.00,BKN,,0.66,WeatherDisplay:10.37,2013-05-29 11:57:00,
2013-05-29 08:02:00,69.6,66.5,29.95,West,270,3.3,5.8,90,0.00,BKN,,0.66,WeatherDisplay:10.37,2013-05-29 12:02:00,
2013-05-29 08:07:00,69.1,66.4,29.94,SW,225,2.5,3.5,91,0.00,BKN,,0.66,WeatherDisplay:10.37,2013-05-29 12:07:00,
2013-05-29 08:12:00,68.9,66.5,29.94,SW,225,2.2,3.5,92,0.00,BKN,,0.66,WeatherDisplay:10.37,2013-05-29 12:12:00,
2013-05-29 08:17:00,69.1,67.0,29.94,West,270,2.7,3.5,93,0.00,BKN,,0.66,WeatherDisplay:10.37,2013-05-29 12:17:00,
2013-05-29 08:22:00,69.1,67.0,29.94,SSW,202,3.8,5.3,93,0.00,BKN,,0.66,WeatherDisplay:10.37,2013-05-29 12:22:00,
2013-05-29 08:27:00,69.4,66.7,29.94,West,270,3.6,4.6,91,0.00,BKN,,0.66,WeatherDisplay:10.37,2013-05-29 12:27:00,
2013-05-29 08:32:00,69.8,66.7,29.95,SW,225,4.4,4.6,90,0.00,BKN,,0.66,WeatherDisplay:10.37,2013-05-29 12:32:00,
2013-05-29 08:37:00,70.3,66.6,29.95,West,270,5.3,5.8,88,0.00,BKN,,0.66,WeatherDisplay:10.37,2013-05-29 12:37:00,
2013-05-29 08:42:00,70.3,66.2,29.94,SW,225,4.6,5.8,87,0.00,BKN,,0.66,WeatherDisplay:10.37,2013-05-29 12:42:00,
2013-05-29 08:47:00,71.1,66.7,29.94,South,180,3.4,4.6,86,0.00,BKN,,0.66,WeatherDisplay:10.37,2013-05-29 12:47:00,
2013-05-29 08:52:00,70.0,66.3,29.94,WSW,248,3.7,5.8,88,0.00,BKN,,0.66,WeatherDisplay:10.37,2013-05-29 12:52:00,
2013-05-29 08:57:00,70.9,66.2,29.94,WSW,248,7.0,8.1,85,0.00,BKN,,0.66,WeatherDisplay:10.37,2013-05-29 12:57:00,
2013-05-29 09:02:00,70.3,65.9,29.94,NNW,338,4.5,9.2,86,0.00,BKN,,0.66,WeatherDisplay:10.37,2013-05-29 13:02:00,
2013-05-29 09:07:00,70.2,65.5,29.95,West,270,6.9,8.1,85,0.00,BKN,,0.66,WeatherDisplay:10.37,2013-05-29 13:07:00,
2013-05-29 09:12:00,70.5,65.8,29.95,WNW,292,3.4,5.8,85,0.00,BKN,,0.66,WeatherDisplay:10.37,2013-05-29 13:12:00,
2013-05-29 09:17:00,70.3,65.2,29.95,West,270,6.8,10.4,84,0.00,BKN,,0.66,WeatherDisplay:10.37,2013-05-29 13:17:00,
2013-05-29 09:22:00,70.9,65.1,29.95,WSW,248,6.0,7.3,82,0.00,BKN,,0.66,WeatherDisplay:10.37,2013-05-29 13:22:00,
2013-05-29 09:27:00,71.1,64.6,29.95,SW,225,7.9,9.2,80,0.00,BKN,,0.66,WeatherDisplay:10.37,2013-05-29 13:27:00,
2013-05-29 09:32:00,71.6,65.1,29.95,WSW,248,6.0,8.1,80,0.00,BKN,,0.66,WeatherDisplay:10.37,2013-05-29 13:32:00,
2013-05-29 09:37:00,71.8,64.6,29.95,WNW,292,8.3,11.5,78,0.00,BKN,,0.66,WeatherDisplay:10.37,2013-05-29 13:37:00,
2013-05-29 09:42:00,72.3,64.3,29.95,SSW,202,7.8,16.1,76,0.00,BKN,,0.66,WeatherDisplay:10.37,2013-05-29 13:42:00,
2013-05-29 09:47:00,72.1,63.7,29.95,WNW,292,10.6,12.7,75,0.00,BKN,,0.66,WeatherDisplay:10.37,2013-05-29 13:47:00,
2013-05-29 09:52:00,72.1,63.7,29.95,SSE,158,10.6,13.8,75,0.00,BKN,,0.66,WeatherDisplay:10.37,2013-05-29 13:52:00,
2013-05-29 09:57:00,72.0,63.6,29.95,WSW,248,10.4,14.5,75,0.00,BKN,,0.66,WeatherDisplay:10.37,2013-05-29 13:57:00,
2013-05-29 10:02:00,72.3,63.5,29.95,WSW,248,9.5,12.4,74,0.00,BKN,,0.66,WeatherDisplay:10.37,2013-05-29 14:02:00,
2013-05-29 10:07:00,73.0,64.2,29.94,SW,225,8.6,9.2,74,0.00,BKN,,0.66,WeatherDisplay:10.37,2013-05-29 14:07:00,
2013-05-29 10:12:00,73.8,64.2,29.94,WSW,248,13.1,19.6,72,0.00,CLR,,0.66,WeatherDisplay:10.37,2013-05-29 14:12:00,
2013-05-29 10:17:00,73.9,63.9,29.95,West,270,9.1,11.5,71,0.00,CLR,,0.66,WeatherDisplay:10.37,2013-05-29 14:17:00,
2013-05-29 10:22:00,74.5,64.1,29.95,West,270,11.4,17.3,70,0.00,CLR,,0.66,WeatherDisplay:10.37,2013-05-29 14:22:00,
2013-05-29 10:27:00,74.1,64.1,29.95,WNW,292,10.5,14.5,71,0.00,CLR,,0.66,WeatherDisplay:10.37,2013-05-29 14:27:00,
2013-05-29 10:32:00,74.7,64.3,29.95,WSW,248,9.6,11.5,70,0.00,CLR,,0.66,WeatherDisplay:10.37,2013-05-29 14:32:00,
2013-05-29 10:37:00,75.2,64.7,29.95,SW,225,7.5,8.1,70,0.00,CLR,,0.66,WeatherDisplay:10.37,2013-05-29 14:37:00,
2013-05-29 10:42:00,75.6,64.3,29.94,SSE,158,10.6,13.8,68,0.00,CLR,,0.66,WeatherDisplay:10.37,2013-05-29 14:42:00,
2013-05-29 10:47:00,75.6,64.3,29.94,West,270,9.7,13.8,68,0.00,CLR,,0.66,WeatherDisplay:10.37,2013-05-29 14:47:00,
2013-05-29 10:52:00,76.1,64.3,29.94,WSW,248,10.9,13.5,67,0.00,CLR,,0.66,WeatherDisplay:10.37,2013-05-29 14:52:00,
2013-05-29 10:57:00,76.6,64.8,29.95,WSW,248,11.0,11.0,67,0.00,CLR,,0.66,WeatherDisplay:10.37,2013-05-29 14:57:00,
2013-05-29 11:02:00,76.5,64.7,29.95,West,270,8.4,10.4,67,0.00,CLR,,0.66,WeatherDisplay:10.37,2013-05-29 15:02:00,
2013-05-29 11:07:00,76.3,64.5,29.95,West,270,12.6,16.1,67,0.00,CLR,,0.66,WeatherDisplay:10.37,2013-05-29 15:07:00,
2013-05-29 11:12:00,76.1,64.3,29.95,SW,225,6.3,6.3,67,0.00,BKN,,0.66,WeatherDisplay:10.37,2013-05-29 15:12:00,
2013-05-29 11:17:00,76.1,64.8,29.95,SW,225,9.3,12.7,68,0.00,BKN,,0.66,WeatherDisplay:10.37,2013-05-29 15:17:00,
2013-05-29 11:22:00,76.1,63.9,29.95,WSW,248,11.0,16.1,66,0.00,BKN,,0.66,WeatherDisplay:10.37,2013-05-29 15:22:00,
2013-05-29 11:27:00,75.7,64.0,29.95,WNW,292,10.7,15.0,67,0.00,BKN,,0.66,WeatherDisplay:10.37,2013-05-29 15:27:00,
2013-05-29 11:32:00,75.4,64.1,29.96,West,270,7.4,10.4,68,0.00,BKN,,0.66,WeatherDisplay:10.37,2013-05-29 15:32:00,
2013-05-29 11:37:00,75.6,63.9,29.96,West,270,10.7,13.8,67,0.00,BKN,,0.66,WeatherDisplay:10.37,2013-05-29 15:37:00,
2013-05-29 11:42:00,75.9,64.2,29.96,WSW,248,8.5,13.8,67,0.00,BKN,,0.66,WeatherDisplay:10.37,2013-05-29 15:42:00,
2013-05-29 11:47:00,75.6,64.3,29.96,South,180,6.2,8.1,68,0.00,BKN,,0.66,WeatherDisplay:10.37,2013-05-29 15:47:00,
2013-05-29 11:52:00,75.9,64.6,29.96,West,270,7.4,9.2,68,0.00,BKN,,0.66,WeatherDisplay:10.37,2013-05-29 15:52:00,
2013-05-29 11:57:00,76.5,64.3,29.96,WSW,248,6.2,9.2,66,0.00,BKN,,0.66,WeatherDisplay:10.37,2013-05-29 15:57:00,
2013-05-29 12:02:00,76.8,64.6,29.96,West,270,11.1,12.7,66,0.00,BKN,,0.66,WeatherDisplay:10.37,2013-05-29 16:02:00,
2013-05-29 12:07:00,76.6,64.4,29.97,SW,225,9.1,11.5,66,0.00,BKN,,0.66,WeatherDisplay:10.37,2013-05-29 16:07:00,
2013-05-29 12:12:00,76.3,64.5,29.97,NNW,338,8.6,11.9,67,0.00,BKN,,0.66,WeatherDisplay:10.37,2013-05-29 16:12:00,
2013-05-29 12:17:00,76.1,64.3,29.97,WSW,248,6.3,6.9,67,0.00,BKN,,0.66,WeatherDisplay:10.37,2013-05-29 16:17:00,
2013-05-29 12:22:00,75.9,64.2,29.97,West,270,6.9,8.1,67,0.00,BKN,,0.66,WeatherDisplay:10.37,2013-05-29 16:22:00,
2013-05-29 12:27:00,75.7,64.0,29.97,SW,225,11.3,15.0,67,0.00,BKN,,0.66,WeatherDisplay:10.37,2013-05-29 16:27:00,
2013-05-29 12:32:00,75.6,64.3,29.96,SW,225,6.6,10.4,68,0.00,BKN,,0.66,WeatherDisplay:10.37,2013-05-29 16:32:00,
2013-05-29 12:37:00,75.6,64.3,29.96,SW,225,6.6,8.1,68,0.00,BKN,,0.66,WeatherDisplay:10.37,2013-05-29 16:37:00,
2013-05-29 12:42:00,75.9,64.6,29.96,WNW,292,6.0,9.2,68,0.00,BKN,,0.66,WeatherDisplay:10.37,2013-05-29 16:42:00,
2013-05-29 12:47:00,76.3,64.5,29.96,SSW,202,5.6,5.8,67,0.00,BKN,,0.66,WeatherDisplay:10.37,2013-05-29 16:47:00,
2013-05-29 12:52:00,76.3,64.5,29.96,West,270,7.3,13.8,67,0.00,BKN,,0.66,WeatherDisplay:10.37,2013-05-29 16:52:00,
2013-05-29 12:57:00,76.3,64.5,29.96,South,180,8.9,12.7,67,0.00,BKN,,0.66,WeatherDisplay:10.37,2013-05-29 16:57:00,
2013-05-29 13:02:00,77.0,65.2,29.96,NW,315,9.1,10.4,67,0.00,BKN,,0.66,WeatherDisplay:10.37,2013-05-29 17:02:00,
2013-05-29 13:07:00,77.0,64.3,29.96,West,270,9.8,10.4,65,0.00,BKN,,0.66,WeatherDisplay:10.37,2013-05-29 17:07:00,
2013-05-29 13:12:00,77.7,65.4,29.96,ESE,112,6.2,7.3,66,0.00,OVC,,0.66,WeatherDisplay:10.37,2013-05-29 17:12:00,
2013-05-29 13:17:00,78.1,65.4,29.95,SW,225,11.2,12.7,65,0.00,OVC,,0.66,WeatherDisplay:10.37,2013-05-29 17:17:00,
2013-05-29 13:22:00,77.9,65.6,29.95,West,270,7.5,15.0,66,0.00,OVC,,0.66,WeatherDisplay:10.37,2013-05-29 17:22:00,
2013-05-29 13:27:00,77.7,65.4,29.95,West,270,10.5,16.1,66,0.00,OVC,,0.66,WeatherDisplay:10.37,2013-05-29 17:27:00,
2013-05-29 13:32:00,76.5,65.1,29.96,WSW,248,12.0,17.3,68,0.00,OVC,,0.66,WeatherDisplay:10.37,2013-05-29 17:32:00,
2013-05-29 13:37:00,76.6,65.7,29.96,SW,225,6.6,15.5,69,0.00,OVC,,0.66,WeatherDisplay:10.37,2013-05-29 17:37:00,
2013-05-29 13:42:00,76.1,65.6,29.96,SW,225,8.8,13.8,70,0.00,OVC,,0.66,WeatherDisplay:10.37,2013-05-29 17:42:00,
2013-05-29 13:47:00,75.7,66.0,29.96,West,270,8.2,10.9,72,0.00,OVC,,0.66,WeatherDisplay:10.37,2013-05-29 17:47:00,
2013-05-29 13:52:00,75.7,66.0,29.96,West,270,7.9,12.7,72,0.00,OVC,,0.66,WeatherDisplay:10.37,2013-05-29 17:52:00,
2013-05-29 13:57:00,75.9,66.2,29.96,West,270,8.6,10.4,72,0.00,OVC,,0.66,WeatherDisplay:10.37,2013-05-29 17:57:00,
2013-05-29 14:02:00,75.6,65.9,29.96,West,270,8.0,10.4,72,0.00,BKN,,0.66,WeatherDisplay:10.37,2013-05-29 18:02:00,
2013-05-29 14:07:00,75.4,65.3,29.96,SW,225,8.0,10.4,71,0.00,BKN,,0.66,WeatherDisplay:10.37,2013-05-29 18:07:00,
2013-05-29 14:12:00,75.6,65.9,29.96,SE,135,6.7,8.1,72,0.00,BKN,,0.66,WeatherDisplay:10.37,2013-05-29 18:12:00,
2013-05-29 14:17:00,75.6,65.9,29.96,West,270,8.8,9.2,72,0.00,BKN,,0.66,WeatherDisplay:10.37,2013-05-29 18:17:00,
2013-05-29 14:22:00,75.0,65.4,29.96,West,270,10.2,11.5,72,0.00,BKN,,0.66,WeatherDisplay:10.37,2013-05-29 18:22:00,
2013-05-29 14:27:00,74.8,65.2,29.96,West,270,7.4,8.1,72,0.00,BKN,,0.66,WeatherDisplay:10.37,2013-05-29 18:27:00,
2013-05-29 14:32:00,75.0,65.4,29.95,WSW,248,6.3,10.4,72,0.00,BKN,,0.66,WeatherDisplay:10.37,2013-05-29 18:32:00,
2013-05-29 14:37:00,74.7,65.5,29.95,West,270,6.7,11.5,73,0.00,BKN,,0.66,WeatherDisplay:10.37,2013-05-29 18:37:00,
2013-05-29 14:42:00,74.3,65.1,29.96,SW,225,5.4,6.9,73,0.00,BKN,,0.66,WeatherDisplay:10.37,2013-05-29 18:42:00,
2013-05-29 14:47:00,73.9,65.1,29.96,WSW,248,5.8,6.8,74,0.00,BKN,,0.66,WeatherDisplay:10.37,2013-05-29 18:47:00,
2013-05-29 14:52:00,73.6,65.2,29.96,West,270,6.3,7.8,75,0.00,BKN,,0.66,WeatherDisplay:10.37,2013-05-29 18:52:00,
2013-05-29 14:57:00,73.8,65.0,29.97,SW,225,8.3,8.3,74,0.00,BKN,,0.66,WeatherDisplay:10.37,2013-05-29 18:57:00,
2013-05-29 15:02:00,73.6,65.2,29.97,SE,135,6.0,8.1,75,0.00,BKN,,0.66,WeatherDisplay:10.37,2013-05-29 19:02:00,
2013-05-29 15:07:00,74.3,65.1,29.97,NE,45,7.2,10.4,73,0.00,BKN,,0.66,WeatherDisplay:10.37,2013-05-29 19:07:00,
2013-05-29 15:12:00,74.3,64.7,29.97,WSW,248,8.4,10.4,72,0.00,BKN,,0.66,WeatherDisplay:10.37,2013-05-29 19:12:00,
2013-05-29 15:17:00,75.0,65.0,29.96,NNW,338,7.9,9.4,71,0.00,BKN,,0.66,WeatherDisplay:10.37,2013-05-29 19:17:00,
2013-05-29 15:22:00,75.2,64.7,29.96,SSE,158,8.2,10.4,70,0.00,BKN,,0.66,WeatherDisplay:10.37,2013-05-29 19:22:00,
2013-05-29 15:27:00,75.7,65.2,29.96,WSW,248,7.6,9.2,70,0.00,BKN,,0.66,WeatherDisplay:10.37,2013-05-29 19:27:00,
2013-05-29 15:32:00,76.3,65.4,29.97,West,270,7.9,9.2,69,0.00,BKN,,0.66,WeatherDisplay:10.37,2013-05-29 19:32:00,
2013-05-29 15:37:00,76.3,65.0,29.97,West,270,9.2,11.9,68,0.00,BKN,,0.66,WeatherDisplay:10.37,2013-05-29 19:37:00,
2013-05-29 15:42:00,75.9,64.6,29.97,South,180,10.0,13.8,68,0.00,BKN,,0.66,WeatherDisplay:10.37,2013-05-29 19:42:00,
2013-05-29 15:47:00,76.3,65.0,29.97,West,270,8.7,11.5,68,0.00,BKN,,0.66,WeatherDisplay:10.37,2013-05-29 19:47:00,
2013-05-29 15:52:00,76.5,64.7,29.97,WSW,248,12.5,15.0,67,0.00,BKN,,0.66,WeatherDisplay:10.37,2013-05-29 19:52:00,
2013-05-29 15:58:00,76.8,64.6,29.97,WSW,248,11.8,16.1,66,0.00,BKN,,0.66,WeatherDisplay:10.37,2013-05-29 19:58:00,
2013-05-29 16:03:00,76.8,65.0,29.97,WSW,248,6.7,11.5,67,0.00,BKN,,0.66,WeatherDisplay:10.37,2013-05-29 20:03:00,
2013-05-29 16:08:00,76.5,64.7,29.97,West,270,8.3,11.5,67,0.00,BKN,,0.66,WeatherDisplay:10.37,2013-05-29 20:08:00,
2013-05-29 16:13:00,76.3,64.1,29.97,WSW,248,12.4,12.7,66,0.00,BKN,,0.66,WeatherDisplay:10.37,2013-05-29 20:13:00,
2013-05-29 16:18:00,75.9,64.2,29.96,West,270,7.1,12.7,67,0.00,BKN,,0.66,WeatherDisplay:10.37,2013-05-29 20:18:00,
2013-05-29 16:23:00,75.9,64.2,29.96,WSW,248,7.2,10.4,67,0.00,BKN,,0.66,WeatherDisplay:10.37,2013-05-29 20:23:00,
2013-05-29 16:28:00,75.4,64.1,29.96,WSW,248,10.2,13.5,68,0.00,BKN,,0.66,WeatherDisplay:10.37,2013-05-29 20:28:00,
2013-05-29 16:33:00,75.0,63.7,29.96,West,270,10.4,16.1,68,0.00,BKN,,0.66,WeatherDisplay:10.37,2013-05-29 20:33:00,
2013-05-29 16:38:00,75.2,63.9,29.96,SW,225,8.7,9.2,68,0.00,BKN,,0.66,WeatherDisplay:10.37,2013-05-29 20:38:00,
2013-05-29 16:43:00,75.7,64.0,29.96,NNW,338,11.2,14.0,67,0.00,BKN,,0.66,WeatherDisplay:10.37,2013-05-29 20:43:00,
2013-05-29 16:48:00,75.7,63.5,29.96,WSW,248,8.9,11.5,66,0.00,BKN,,0.66,WeatherDisplay:10.37,2013-05-29 20:48:00,
2013-05-29 16:53:00,75.9,63.7,29.95,West,270,9.0,11.9,66,0.00,BKN,,0.66,WeatherDisplay:10.37,2013-05-29 20:53:00,
2013-05-29 16:58:00,76.1,63.9,29.95,SW,225,7.8,10.4,66,0.00,BKN,,0.66,WeatherDisplay:10.37,2013-05-29 20:58:00,
2013-05-29 17:03:00,75.9,63.7,29.95,South,180,7.9,10.4,66,0.00,BKN,,0.66,WeatherDisplay:10.37,2013-05-29 21:03:00,
2013-05-29 17:08:00,75.6,63.9,29.95,West,270,8.6,10.4,67,0.00,BKN,,0.66,WeatherDisplay:10.37,2013-05-29 21:08:00,
2013-05-29 17:13:00,75.2,63.5,29.95,WSW,248,8.0,8.1,67,0.00,BKN,,0.66,WeatherDisplay:10.37,2013-05-29 21:13:00,
2013-05-29 17:18:00,75.4,64.1,29.95,West,270,8.3,12.7,68,0.00,BKN,,0.66,WeatherDisplay:10.37,2013-05-29 21:18:00,
2013-05-29 17:23:00,75.9,64.2,29.95,WSW,248,4.9,6.9,67,0.00,BKN,,0.66,WeatherDisplay:10.37,2013-05-29 21:23:00,
2013-05-29 17:28:00,75.9,64.2,29.95,SW,225,7.6,7.6,67,0.00,BKN,,0.66,WeatherDisplay:10.37,2013-05-29 21:28:00,
2013-05-29 17:33:00,75.9,63.3,29.96,SW,225,11.9,12.7,65,0.00,BKN,,0.66,WeatherDisplay:10.37,2013-05-29 21:33:00,
2013-05-29 17:38:00,75.9,63.3,29.96,SSW,202,11.5,11.5,65,0.00,BKN,,0.66,WeatherDisplay:10.37,2013-05-29 21:38:00,
2013-05-29 17:43:00,75.4,63.2,29.97,WNW,292,8.2,10.4,66,0.00,BKN,,0.66,WeatherDisplay:10.37,2013-05-29 21:43:00,
2013-05-29 17:48:00,76.1,63.9,29.97,SW,225,7.7,10.4,66,0.00,BKN,,0.66,WeatherDisplay:10.37,2013-05-29 21:48:00,
2013-05-29 17:53:00,75.9,63.7,29.97,WSW,248,6.7,11.5,66,0.00,BKN,,0.66,WeatherDisplay:10.37,2013-05-29 21:53:00,
2013-05-29 17:58:00,75.7,63.5,29.96,West,270,9.9,10.4,66,0.00,BKN,,0.66,WeatherDisplay:10.37,2013-05-29 21:58:00,
2013-05-29 18:03:00,76.3,64.1,29.96,SW,225,8.2,10.4,66,0.00,BKN,,0.66,WeatherDisplay:10.37,2013-05-29 22:03:00,
2013-05-29 18:08:00,76.6,64.4,29.97,West,270,7.7,15.0,66,0.00,BKN,,0.66,WeatherDisplay:10.37,2013-05-29 22:08:00,
2013-05-29 18:13:00,76.1,63.9,29.97,West,270,7.8,13.8,66,0.00,BKN,,0.66,WeatherDisplay:10.37,2013-05-29 22:13:00,
2013-05-29 18:18:00,76.8,64.6,29.97,WSW,248,7.5,7.8,66,0.00,BKN,,0.66,WeatherDisplay:10.37,2013-05-29 22:18:00,
2013-05-29 18:23:00,76.1,63.9,29.97,WSW,248,6.7,11.5,66,0.00,BKN,,0.66,WeatherDisplay:10.37,2013-05-29 22:23:00,
2013-05-29 18:28:00,76.3,64.1,29.97,SSW,202,9.0,10.4,66,0.00,BKN,,0.66,WeatherDisplay:10.37,2013-05-29 22:28:00,
2013-05-29 18:33:00,75.9,63.7,29.97,West,270,9.4,10.4,66,0.00,BKN,,0.66,WeatherDisplay:10.37,2013-05-29 22:33:00,
2013-05-29 18:38:00,75.7,63.5,29.97,West,270,7.0,9.2,66,0.00,BKN,,0.66,WeatherDisplay:10.37,2013-05-29 22:38:00,
2013-05-29 18:43:00,75.9,63.7,29.97,WSW,248,8.7,10.4,66,0.00,BKN,,0.66,WeatherDisplay:10.37,2013-05-29 22:43:00,
2013-05-29 18:48:00,75.4,63.2,29.97,SW,225,10.0,12.7,66,0.00,BKN,,0.66,WeatherDisplay:10.37,2013-05-29 22:48:00,
2013-05-29 18:53:00,75.9,63.7,29.97,West,270,7.1,7.8,66,0.00,BKN,,0.66,WeatherDisplay:10.37,2013-05-29 22:53:00,
2013-05-29 18:58:00,75.9,63.3,29.97,WSW,248,10.0,10.0,65,0.00,BKN,,0.66,WeatherDisplay:10.37,2013-05-29 22:58:00,
2013-05-29 19:03:00,75.6,63.4,29.97,WSW,248,7.7,12.7,66,0.00,BKN,,0.66,WeatherDisplay:10.37,2013-05-29 23:03:00,
2013-05-29 19:08:00,76.1,63.5,29.97,West,270,6.5,9.4,65,0.00,BKN,,0.66,WeatherDisplay:10.37,2013-05-29 23:08:00,
2013-05-29 19:13:00,75.9,63.3,29.97,SW,225,6.9,10.4,65,0.00,BKN,,0.66,WeatherDisplay:10.37,2013-05-29 23:13:00,
2013-05-29 19:18:00,75.7,63.1,29.98,West,270,5.5,9.2,65,0.00,BKN,,0.66,WeatherDisplay:10.37,2013-05-29 23:18:00,
2013-05-29 19:23:00,75.6,63.0,29.98,West,270,8.5,11.5,65,0.00,SCT,,0.66,WeatherDisplay:10.37,2013-05-29 23:23:00,
2013-05-29 19:28:00,75.4,63.2,29.98,NNW,338,6.6,9.2,66,0.00,SCT,,0.66,WeatherDisplay:10.37,2013-05-29 23:28:00,
2013-05-29 19:33:00,75.7,63.5,29.98,WNW,292,4.2,5.8,66,0.00,SCT,,0.66,WeatherDisplay:10.37,2013-05-29 23:33:00,
2013-05-29 19:38:00,74.8,63.1,29.98,West,270,9.4,11.4,67,0.00,SCT,,0.66,WeatherDisplay:10.37,2013-05-29 23:38:00,
2013-05-29 19:43:00,74.7,63.0,29.98,WSW,248,9.0,11.5,67,0.00,SCT,,0.66,WeatherDisplay:10.37,2013-05-29 23:43:00,
2013-05-29 19:48:00,74.5,62.8,29.98,West,270,5.2,9.2,67,0.00,SCT,,0.66,WeatherDisplay:10.37,2013-05-29 23:48:00,
2013-05-29 19:53:00,73.9,62.7,29.97,SW,225,6.3,9.2,68,0.00,SCT,,0.66,WeatherDisplay:10.37,2013-05-29 23:53:00,
2013-05-29 19:58:00,73.4,62.6,29.97,WSW,248,5.9,6.9,69,0.00,SCT,,0.66,WeatherDisplay:10.37,2013-05-29 23:58:00,
2013-05-29 20:03:00,73.2,62.8,29.97,SW,225,5.6,6.9,70,0.00,SCT,,0.66,WeatherDisplay:10.37,2013-05-30 00:03:00,
2013-05-29 20:08:00,72.9,62.9,29.97,West,270,5.1,6.9,71,0.00,SCT,,0.66,WeatherDisplay:10.37,2013-05-30 00:08:00,
2013-05-29 20:13:00,72.5,62.6,29.97,WSW,248,4.3,6.9,71,0.00,SCT,,0.66,WeatherDisplay:10.37,2013-05-30 00:13:00,
2013-05-29 20:18:00,72.5,62.6,29.97,West,270,5.2,5.8,71,0.00,SCT,,0.66,WeatherDisplay:10.37,2013-05-30 00:18:00,
2013-05-29 20:23:00,72.3,62.8,29.97,WSW,248,5.8,6.3,72,0.00,SCT,,0.66,WeatherDisplay:10.37,2013-05-30 00:23:00,
2013-05-29 20:28:00,72.3,62.8,29.97,West,270,4.3,4.6,72,0.00,SCT,,0.66,WeatherDisplay:10.37,2013-05-30 00:28:00,
2013-05-29 20:33:00,72.0,62.9,29.98,West,270,3.5,4.6,73,0.00,SCT,,0.66,WeatherDisplay:10.37,2013-05-30 00:33:00,
2013-05-29 20:38:00,71.8,62.7,29.98,WSW,248,2.4,4.6,73,0.00,SCT,,0.66,WeatherDisplay:10.37,2013-05-30 00:38:00,
2013-05-29 20:43:00,71.6,62.5,29.98,SW,225,3.2,4.6,73,0.00,SCT,,0.66,WeatherDisplay:10.37,2013-05-30 00:43:00,
2013-05-29 20:48:00,71.2,62.5,29.98,SW,225,2.3,3.5,74,0.00,SCT,,0.66,WeatherDisplay:10.37,2013-05-30 00:48:00,
2013-05-29 20:53:00,71.2,62.9,29.98,SW,225,1.9,2.3,75,0.00,SCT,,0.66,WeatherDisplay:10.37,2013-05-30 00:53:00,
2013-05-29 20:58:00,71.1,62.8,29.98,SW,225,3.4,5.8,75,0.00,SCT,,0.66,WeatherDisplay:10.37,2013-05-30 00:58:00,
2013-05-29 21:03:00,71.2,62.9,29.98,WSW,248,3.1,3.1,75,0.00,BKN,,0.66,WeatherDisplay:10.37,2013-05-30 01:03:00,
2013-05-29 21:08:00,71.2,62.9,29.98,SSW,202,2.4,3.5,75,0.00,BKN,,0.66,WeatherDisplay:10.37,2013-05-30 01:08:00,
2013-05-29 21:13:00,71.1,62.8,29.98,SW,225,1.3,2.3,75,0.00,BKN,,0.66,WeatherDisplay:10.37,2013-05-30 01:13:00,
2013-05-29 21:18:00,71.1,62.8,29.98,WSW,248,4.1,4.6,75,0.00,BKN,,0.66,WeatherDisplay:10.37,2013-05-30 01:18:00,
2013-05-29 21:23:00,71.2,62.9,29.98,WSW,248,2.4,2.4,75,0.00,BKN,,0.66,WeatherDisplay:10.37,2013-05-30 01:23:00,
2013-05-29 21:28:00,71.1,62.8,29.98,SW,225,2.2,3.5,75,0.00,BKN,,0.66,WeatherDisplay:10.37,2013-05-30 01:28:00,
2013-05-29 21:33:00,70.7,62.8,29.99,West,270,2.1,3.2,76,0.00,BKN,,0.66,WeatherDisplay:10.37,2013-05-30 01:33:00,
2013-05-29 21:38:00,70.5,62.6,29.99,West,270,1.9,2.3,76,0.00,BKN,,0.66,WeatherDisplay:10.37,2013-05-30 01:38:00,
2013-05-29 21:43:00,70.3,62.7,29.98,West,270,0.5,1.1,77,0.00,BKN,,0.66,WeatherDisplay:10.37,2013-05-30 01:43:00,
2013-05-29 21:48:00,70.0,62.5,29.98,West,270,2.0,2.3,77,0.00,BKN,,0.66,WeatherDisplay:10.37,2013-05-30 01:48:00,
2013-05-29 21:53:00,70.0,62.8,29.99,West,270,1.8,3.5,78,0.00,BKN,,0.66,WeatherDisplay:10.37,2013-05-30 01:53:00,
2013-05-29 21:58:00,70.0,62.8,29.99,WSW,248,1.7,2.3,78,0.00,BKN,,0.66,WeatherDisplay:10.37,2013-05-30 01:58:00,
2013-05-29 22:03:00,69.8,62.6,29.99,WSW,248,2.6,3.5,78,0.00,BKN,,0.66,WeatherDisplay:10.37,2013-05-30 02:03:00,
2013-05-29 22:08:00,69.8,62.6,29.99,SW,225,2.1,2.3,78,0.00,BKN,,0.66,WeatherDisplay:10.37,2013-05-30 02:08:00,
2013-05-29 22:13:00,69.6,62.4,29.99,WSW,248,2.0,2.3,78,0.00,BKN,,0.66,WeatherDisplay:10.37,2013-05-30 02:13:00,
2013-05-29 22:18:00,69.4,62.6,29.99,WSW,248,1.4,2.2,79,0.00,BKN,,0.66,WeatherDisplay:10.37,2013-05-30 02:18:00,
2013-05-29 22:23:00,69.1,62.3,29.99,WSW,248,0.4,1.1,79,0.00,BKN,,0.66,WeatherDisplay:10.37,2013-05-30 02:23:00,
2013-05-29 22:28:00,68.5,62.1,29.99,WSW,248,0.1,1.1,80,0.00,BKN,,0.66,WeatherDisplay:10.37,2013-05-30 02:28:00,
2013-05-29 22:33:00,68.2,61.8,30.00,SSW,202,0.0,0.0,80,0.00,BKN,,0.66,WeatherDisplay:10.37,2013-05-30 02:33:00,
2013-05-29 22:38:00,67.8,61.8,30.00,West,270,0.2,1.1,81,0.00,BKN,,0.66,WeatherDisplay:10.37,2013-05-30 02:38:00,
2013-05-29 22:43:00,67.5,62.2,30.00,ESE,112,0.0,0.0,83,0.00,BKN,,0.66,WeatherDisplay:10.37,2013-05-30 02:43:00,
2013-05-29 22:48:00,67.1,61.8,30.00,ESE,112,0.4,1.1,83,0.00,BKN,,0.66,WeatherDisplay:10.37,2013-05-30 02:48:00,
2013-05-29 22:53:00,66.9,61.9,30.00,West,270,0.3,1.1,84,0.00,BKN,,0.66,WeatherDisplay:10.37,2013-05-30 02:53:00,
2013-05-29 22:58:00,66.7,62.0,30.00,SSW,202,0.3,0.0,85,0.00,BKN,,0.66,WeatherDisplay:10.37,2013-05-30 02:58:00,
2013-05-29 23:03:00,66.6,61.9,30.00,South,180,0.0,1.1,85,0.00,BKN,,0.66,WeatherDisplay:10.37,2013-05-30 03:03:00,
2013-05-29 23:08:00,66.6,62.3,30.00,SSW,202,0.2,2.3,86,0.00,BKN,,0.66,WeatherDisplay:10.37,2013-05-30 03:08:00,
2013-05-29 23:13:00,66.7,62.4,30.00,West,270,1.3,2.3,86,0.00,BKN,,0.66,WeatherDisplay:10.37,2013-05-30 03:13:00,
2013-05-29 23:18:00,66.7,62.4,30.01,SW,225,0.6,2.3,86,0.00,BKN,,0.66,WeatherDisplay:10.37,2013-05-30 03:18:00,
2013-05-29 23:23:00,66.6,62.3,30.01,ESE,112,0.0,1.1,86,0.00,BKN,,0.66,WeatherDisplay:10.37,2013-05-30 03:23:00,
2013-05-29 23:28:00,66.4,62.1,30.01,West,270,0.0,0.0,86,0.00,BKN,,0.66,WeatherDisplay:10.37,2013-05-30 03:28:00,
2013-05-29 23:33:00,66.2,62.2,30.01,WSW,248,0.0,0.0,87,0.00,BKN,,0.66,WeatherDisplay:10.37,2013-05-30 03:33:00,
2013-05-29 23:38:00,66.2,62.2,30.01,West,270,0.4,1.1,87,0.00,BKN,,0.66,WeatherDisplay:10.37,2013-05-30 03:38:00,
2013-05-29 23:43:00,66.0,62.0,30.01,WSW,248,0.6,1.1,87,0.00,BKN,,0.66,WeatherDisplay:10.37,2013-05-30 03:43:00,
2013-05-29 23:48:00,65.8,61.8,30.01,NW,315,0.0,0.0,87,0.00,BKN,,0.66,WeatherDisplay:10.37,2013-05-30 03:48:00,
2013-05-29 23:53:00,65.7,62.0,30.01,South,180,1.3,1.3,88,0.00,BKN,,0.66,WeatherDisplay:10.37,2013-05-30 03:53:00,
2013-05-29 23:58:00,65.5,61.9,30.01,SW,225,0.0,0.0,88,0.00,BKN,,0.66,WeatherDisplay:10.37,2013-05-30 03:58:00,